createdAt,value
2022-09-07T00:00:28.707Z,100775.09
2022-09-07T00:03:33.835Z,100781.61
2022-09-07T00:06:42.712Z,100777.83
2022-09-07T00:09:49.986Z,100764.75
2022-09-07T00:12:54.971Z,100775.69
2022-09-07T00:16:00.783Z,100777.94
2022-09-07T00:19:09.470Z,100776.75
2022-09-07T00:22:16.309Z,100769.81
2022-09-07T00:25:23.734Z,100773.15
2022-09-07T00:28:29.069Z,100773.50
2022-09-07T00:31:36.700Z,100774.87
2022-09-07T00:34:42.555Z,100771.12
2022-09-07T00:37:48.532Z,100766.16
2022-09-07T00:40:54.066Z,100771.12
2022-09-07T00:44:07.120Z,100770.27
2022-09-07T00:47:06.234Z,100774.91
2022-09-07T00:50:34.793Z,100770.46
2022-09-07T00:53:48.352Z,100770.09
2022-09-07T00:56:55.905Z,100771.80
2022-09-07T01:00:04.790Z,100775.58
2022-09-07T01:03:10.347Z,100772.50
2022-09-07T01:06:32.114Z,100772.98
2022-09-07T01:09:37.723Z,100776.95
2022-09-07T01:12:38.299Z,100779.17
2022-09-07T01:16:07.958Z,100774.38
2022-09-07T01:19:47.318Z,100773.34
2022-09-07T01:23:32.177Z,100772.16
2022-09-07T01:27:24.098Z,100773.52
2022-09-07T01:30:36.802Z,100773.34
2022-09-07T01:33:55.580Z,100770.27
2022-09-07T01:37:17.333Z,100772.16
2022-09-07T01:40:50.191Z,100770.79
2022-09-07T01:44:07.961Z,100772.50
2022-09-07T01:47:25.811Z,100772.68
2022-09-07T01:50:59.896Z,100769.42
2022-09-07T01:54:10.177Z,100771.97
2022-09-07T01:57:23.171Z,100765.64
2022-09-07T02:00:30.097Z,100765.65
2022-09-07T02:03:50.805Z,100771.12
2022-09-07T02:07:12.173Z,100774.88
2022-09-07T02:10:41.356Z,100771.28
2022-09-07T02:13:54.081Z,100763.94
2022-09-07T02:17:20.801Z,100763.92
2022-09-07T02:20:33.947Z,100757.94
2022-09-07T02:23:46.409Z,100764.27
2022-09-07T02:26:53.757Z,100767.00
2022-09-07T02:30:00.933Z,100767.52
2022-09-07T02:33:07.072Z,100769.77
2022-09-07T02:36:11.854Z,100768.73
2022-09-07T02:39:18.125Z,100762.06
2022-09-07T02:42:24.844Z,100763.06
2022-09-07T02:45:30.202Z,100759.47
2022-09-07T02:48:52.660Z,100758.11
2022-09-07T02:52:18.480Z,100761.17
2022-09-07T02:55:50.174Z,100761.87
2022-09-07T02:59:03.566Z,100760.84
2022-09-07T03:02:22.650Z,100755.37
2022-09-07T03:06:06.319Z,100760.83
2022-09-07T03:09:13.072Z,100771.09
2022-09-07T03:12:20.653Z,100765.11
2022-09-07T03:15:29.566Z,100769.06
2022-09-07T03:18:35.342Z,100769.93
2022-09-07T03:21:41.545Z,100775.74
2022-09-07T03:24:47.778Z,100775.23
2022-09-07T03:27:53.829Z,100779.36
2022-09-07T03:30:59.530Z,100785.86
2022-09-07T03:34:05.175Z,100789.27
2022-09-07T03:37:04.913Z,100787.58
2022-09-07T03:40:11.675Z,100795.78
2022-09-07T03:43:17.568Z,100791.68
2022-09-07T03:46:26.333Z,100799.39
2022-09-07T03:49:32.926Z,100800.05
2022-09-07T03:52:39.607Z,100807.09
2022-09-07T03:55:45.403Z,100807.76
2022-09-07T03:58:51.914Z,100806.52
2022-09-07T04:01:59.605Z,100812.12
2022-09-07T04:05:05.824Z,100811.77
2022-09-07T04:08:10.999Z,100812.07
2022-09-07T04:11:17.294Z,100811.35
2022-09-07T04:14:25.189Z,100810.06
2022-09-07T04:17:30.921Z,100816.69
2022-09-07T04:20:36.836Z,100811.40
2022-09-07T04:23:42.853Z,100814.05
2022-09-07T04:26:50.653Z,100808.05
2022-09-07T04:29:56.929Z,100813.50
2022-09-07T04:33:03.286Z,100810.37
2022-09-07T04:36:10.136Z,100814.52
2022-09-07T04:39:17.870Z,100815.49
2022-09-07T04:42:25.604Z,100820.67
2022-09-07T04:45:31.079Z,100815.95
2022-09-07T04:48:37.273Z,100816.11
2022-09-07T04:51:37.922Z,100817.47
2022-09-07T04:54:23.654Z,100819.20
2022-09-07T04:57:19.505Z,100822.63
2022-09-07T05:00:07.873Z,100818.25
2022-09-07T05:03:00.520Z,100825.66
2022-09-07T05:05:46.788Z,100825.14
2022-09-07T05:08:41.239Z,100831.62
2022-09-07T05:11:31.132Z,100835.20
2022-09-07T05:14:24.144Z,100829.75
2022-09-07T05:17:29.455Z,100831.41
2022-09-07T05:20:34.358Z,100838.41
2022-09-07T05:23:39.951Z,100829.55
2022-09-07T05:26:49.046Z,100824.16
2022-09-07T05:30:04.647Z,100824.66
2022-09-07T05:33:03.664Z,100829.94
2022-09-07T05:36:13.458Z,100828.04
2022-09-07T05:39:18.428Z,100830.09
2022-09-07T05:42:23.446Z,100830.45
2022-09-07T05:45:23.551Z,100831.62
2022-09-07T05:48:29.105Z,100827.82
2022-09-07T05:51:34.778Z,100829.73
2022-09-07T05:54:41.199Z,100829.64
2022-09-07T05:57:45.624Z,100834.11
2022-09-07T06:00:51.839Z,100829.61
2022-09-07T06:03:50.960Z,100835.79
2022-09-07T06:07:20.645Z,100832.48
2022-09-07T06:13:11.721Z,100838.67
2022-09-07T06:16:19.052Z,100839.72
2022-09-07T06:19:25.859Z,100847.70
2022-09-07T06:22:31.500Z,100851.42
2022-09-07T06:25:37.057Z,100850.70
2022-09-07T06:28:49.190Z,100851.22
2022-09-07T06:35:01.461Z,100846.52
2022-09-07T06:38:07.510Z,100849.50
2022-09-07T06:44:29.426Z,100850.63
2022-09-07T06:47:35.248Z,100858.41
2022-09-07T06:50:41.701Z,100858.84
2022-09-07T06:53:47.550Z,100870.63
2022-09-07T06:56:54.154Z,100866.66
2022-09-07T07:00:00.294Z,100870.23
2022-09-07T07:03:09.016Z,100876.32
2022-09-07T07:06:14.684Z,100880.94
2022-09-07T07:09:25.735Z,100876.82
2022-09-07T07:15:36.285Z,100882.58
2022-09-07T07:18:42.232Z,100879.97
2022-09-07T07:22:10.668Z,100878.22
2022-09-07T07:24:56.023Z,100885.02
2022-09-07T07:31:12.175Z,100880.37
2022-09-07T07:34:04.005Z,100879.41
2022-09-07T07:37:10.416Z,100880.29
2022-09-07T07:40:17.536Z,100891.48
2022-09-07T07:43:23.533Z,100884.05
2022-09-07T07:46:33.454Z,100881.10
2022-09-07T07:49:39.774Z,100881.16
2022-09-07T07:53:39.621Z,100878.31
2022-09-07T07:55:57.958Z,100864.78
2022-09-07T07:59:04.647Z,100868.63
2022-09-07T08:02:11.795Z,100868.56
2022-09-07T08:05:17.416Z,100869.66
2022-09-07T08:08:23.377Z,100861.48
2022-09-07T08:11:34.466Z,100864.58
2022-09-07T08:14:40.119Z,100859.08
2022-09-07T08:17:45.744Z,100857.98
2022-09-07T08:20:51.075Z,100855.91
2022-09-07T08:23:57.157Z,100856.30
2022-09-07T08:27:03.771Z,100857.23
2022-09-07T08:30:08.668Z,100854.45
2022-09-07T08:33:13.782Z,100854.20
2022-09-07T08:36:34.699Z,100851.12
2022-09-07T08:39:40.331Z,100845.88
2022-09-07T08:43:03.393Z,100838.07
2022-09-07T08:46:11.652Z,100839.39
2022-09-07T08:49:16.475Z,100829.95
2022-09-07T08:52:29.099Z,100833.37
2022-09-07T08:55:39.541Z,100836.69
2022-09-07T08:59:02.787Z,100832.75
2022-09-07T09:05:16.943Z,100829.02
2022-09-07T09:08:56.214Z,100816.66
2022-09-07T09:12:36.823Z,100818.70
2022-09-07T09:15:44.125Z,100820.78
2022-09-07T09:19:08.451Z,100804.74
2022-09-07T09:22:38.444Z,100809.05
2022-09-07T09:25:47.428Z,100802.91
2022-09-07T09:28:53.641Z,100799.53
2022-09-07T09:32:00.096Z,100803.64
2022-09-07T09:35:32.699Z,100800.11
2022-09-07T09:38:51.159Z,100800.44
2022-09-07T09:41:57.653Z,100787.95
2022-09-07T09:45:02.809Z,100775.89
2022-09-07T09:48:09.193Z,100785.97
2022-09-07T09:54:55.836Z,100785.04
2022-09-07T10:04:45.784Z,100777.31
2022-09-07T10:07:52.819Z,100778.00
2022-09-07T10:11:21.074Z,100772.67
2022-09-07T10:14:45.829Z,100774.91
2022-09-07T10:17:57.468Z,100767.00
2022-09-07T10:21:03.148Z,100766.27
2022-09-07T10:24:21.689Z,100768.22
2022-09-07T10:27:48.090Z,100762.45
2022-09-07T10:31:04.033Z,100764.93
2022-09-07T10:34:26.017Z,100768.61
2022-09-07T10:37:54.969Z,100766.07
2022-09-07T10:41:17.362Z,100764.27
2022-09-07T10:44:23.372Z,100759.75
2022-09-07T10:47:39.403Z,100760.36
2022-09-07T10:51:13.737Z,100768.42
2022-09-07T10:54:39.606Z,100762.52
2022-09-07T10:59:01.512Z,100757.07
2022-09-07T11:01:44.105Z,100755.13
2022-09-07T11:05:38.559Z,100755.75
2022-09-07T11:09:32.611Z,100745.99
2022-09-07T11:12:50.332Z,100742.81
2022-09-07T11:15:59.926Z,100740.84
2022-09-07T11:22:34.603Z,100731.09
2022-09-07T11:25:55.371Z,100737.56
2022-09-07T11:29:31.619Z,100737.08
2022-09-07T11:32:27.741Z,100736.91
2022-09-07T11:36:11.279Z,100730.91
2022-09-07T11:39:22.508Z,100728.45
2022-09-07T11:42:47.050Z,100722.45
2022-09-07T11:46:11.483Z,100727.41
2022-09-07T11:49:18.073Z,100719.20
2022-09-07T11:52:54.892Z,100726.67
2022-09-07T11:56:02.485Z,100713.58
2022-09-07T11:59:37.136Z,100714.33
2022-09-07T12:03:08.414Z,100713.49
2022-09-07T12:06:51.541Z,100720.64
2022-09-07T12:10:26.705Z,100716.34
2022-09-07T12:13:49.238Z,100717.19
2022-09-07T12:17:41.715Z,100716.38
2022-09-07T12:21:01.381Z,100706.89
2022-09-07T12:24:07.679Z,100705.55
2022-09-07T12:27:14.541Z,100712.39
2022-09-07T12:30:31.118Z,100705.31
2022-09-07T12:33:39.617Z,100702.55
2022-09-07T12:36:49.227Z,100696.17
2022-09-07T12:39:54.494Z,100691.84
2022-09-07T12:43:09.422Z,100690.81
2022-09-07T12:46:08.585Z,100689.05
2022-09-07T12:49:32.459Z,100687.09
2022-09-07T12:52:47.921Z,100684.70
2022-09-07T12:56:26.594Z,100683.84
2022-09-07T13:00:01.209Z,100695.52
2022-09-07T13:07:02.638Z,100681.90
2022-09-07T13:10:11.079Z,100679.67
2022-09-07T13:20:11.524Z,100678.53
2022-09-07T13:23:35.012Z,100670.50
2022-09-07T13:27:09.597Z,100669.92
2022-09-07T13:34:13.905Z,100665.80
2022-09-07T13:37:30.060Z,100667.95
2022-09-07T13:40:39.739Z,100664.58
2022-09-07T13:43:44.906Z,100666.08
2022-09-07T13:47:28.869Z,100665.53
2022-09-07T13:50:56.675Z,100670.25
2022-09-07T13:54:20.768Z,100668.88
2022-09-07T13:57:33.988Z,100659.01
2022-09-07T14:00:39.023Z,100663.72
2022-09-07T14:03:49.383Z,100656.39
2022-09-07T14:06:55.500Z,100661.73
2022-09-07T14:10:01.209Z,100660.69
2022-09-07T14:13:22.671Z,100658.70
2022-09-07T14:16:28.684Z,100658.05
2022-09-07T14:19:41.244Z,100657.17
2022-09-07T14:22:53.250Z,100656.17
2022-09-07T14:29:00.764Z,100652.27
2022-09-07T14:32:07.586Z,100657.11
2022-09-07T14:35:24.103Z,100652.74
2022-09-07T14:41:43.456Z,100660.75
2022-09-07T14:44:54.353Z,100654.84
2022-09-07T14:48:01.375Z,100658.56
2022-09-07T14:51:29.726Z,100655.94
2022-09-07T14:54:17.510Z,100657.62
2022-09-07T14:57:27.640Z,100662.91
2022-09-07T15:00:46.622Z,100655.19
2022-09-07T15:04:00.668Z,100657.75
2022-09-07T15:07:07.045Z,100655.13
2022-09-07T15:10:32.246Z,100659.16
2022-09-07T15:13:45.585Z,100650.69
2022-09-07T15:20:10.677Z,100650.14
2022-09-07T15:23:20.162Z,100651.33
2022-09-07T15:29:35.841Z,100657.80
2022-09-07T15:32:47.183Z,100656.12
2022-09-07T15:35:53.524Z,100651.18
2022-09-07T15:39:01.599Z,100651.23
2022-09-07T15:45:14.698Z,100647.62
2022-09-07T15:48:20.448Z,100645.47
2022-09-07T15:54:39.617Z,100643.92
2022-09-07T15:57:52.799Z,100643.27
2022-09-07T16:04:09.163Z,100643.95
2022-09-07T16:07:15.283Z,100641.27
2022-09-07T16:10:21.669Z,100642.33
2022-09-07T16:13:31.440Z,100648.09
2022-09-07T16:19:43.276Z,100662.62
2022-09-07T16:26:10.883Z,100657.67
2022-09-07T16:29:17.917Z,100666.40
2022-09-07T16:35:29.308Z,100667.40
2022-09-07T16:38:49.592Z,100671.95
2022-09-07T16:41:44.216Z,100677.72
2022-09-07T16:44:50.319Z,100681.80
2022-09-07T16:47:56.879Z,100684.08
2022-09-07T16:51:02.861Z,100682.59
2022-09-07T16:54:10.062Z,100684.42
2022-09-07T16:57:15.859Z,100689.45
2022-09-07T17:00:23.638Z,100689.54
2022-09-07T17:03:30.264Z,100692.41
2022-09-07T17:06:37.548Z,100697.27
2022-09-07T17:09:42.382Z,100697.55
2022-09-07T17:12:48.080Z,100699.81
2022-09-07T17:15:53.853Z,100705.66
2022-09-07T17:22:07.237Z,100711.98
2022-09-07T17:25:14.118Z,100717.70
2022-09-07T17:28:20.527Z,100711.77
2022-09-07T17:34:35.369Z,100720.55
2022-09-07T17:37:41.320Z,100718.77
2022-09-07T17:40:47.727Z,100721.50
2022-09-07T17:43:54.627Z,100726.38
2022-09-07T17:46:59.932Z,100724.28
2022-09-07T17:50:04.783Z,100732.03
2022-09-07T17:53:03.604Z,100735.81
2022-09-07T17:56:09.926Z,100734.33
2022-09-07T18:02:21.808Z,100736.38
2022-09-07T18:05:28.138Z,100739.53
2022-09-07T18:08:34.003Z,100746.88
2022-09-07T18:11:48.127Z,100745.13
2022-09-07T18:14:45.424Z,100746.93
2022-09-07T18:17:52.161Z,100746.93
2022-09-07T18:20:58.326Z,100748.09
2022-09-07T18:24:14.067Z,100748.06
2022-09-07T18:27:20.614Z,100745.91
2022-09-07T18:30:28.079Z,100754.19
2022-09-07T18:33:35.576Z,100761.19
2022-09-07T18:36:44.006Z,100754.72
2022-09-07T18:39:50.883Z,100751.00
2022-09-07T18:42:55.769Z,100746.55
2022-09-07T18:46:02.273Z,100745.36
2022-09-07T18:49:09.103Z,100750.84
2022-09-07T18:55:24.079Z,100750.34
2022-09-07T18:58:29.818Z,100742.67
2022-09-07T19:01:37.247Z,100749.05
2022-09-07T19:07:50.531Z,100743.61
2022-09-07T19:10:56.907Z,100739.78
2022-09-07T19:14:07.373Z,100745.23
2022-09-07T19:17:13.483Z,100749.10
2022-09-07T19:20:19.083Z,100747.73
2022-09-07T19:23:23.999Z,100738.77
2022-09-07T19:26:28.962Z,100733.42
2022-09-07T19:29:35.437Z,100737.05
2022-09-07T19:32:40.213Z,100731.11
2022-09-07T19:35:48.468Z,100731.44
2022-09-07T19:38:55.888Z,100726.22
2022-09-07T19:42:01.340Z,100724.79
2022-09-07T19:45:07.628Z,100726.76
2022-09-07T19:48:13.739Z,100722.56
2022-09-07T19:51:21.710Z,100720.02
2022-09-07T19:54:27.076Z,100723.89
2022-09-07T19:57:31.794Z,100725.20
2022-09-07T20:00:37.808Z,100725.64
2022-09-07T20:03:42.816Z,100721.72
2022-09-07T20:06:48.850Z,100729.97
2022-09-07T20:09:55.766Z,100725.00
2022-09-07T20:13:01.359Z,100724.64
2022-09-07T20:16:07.055Z,100726.32
2022-09-07T20:19:15.127Z,100726.36
2022-09-07T20:22:21.264Z,100720.59
2022-09-07T20:25:28.051Z,100719.41
2022-09-07T20:28:33.930Z,100724.02
2022-09-07T20:31:39.303Z,100718.70
2022-09-07T20:34:45.509Z,100721.86
2022-09-07T20:37:51.908Z,100713.73
2022-09-07T20:41:10.425Z,100720.89
2022-09-07T20:44:17.436Z,100714.64
2022-09-07T20:47:25.922Z,100723.73
2022-09-07T20:50:31.809Z,100721.59
2022-09-07T20:53:37.470Z,100720.36
2022-09-07T20:56:44.008Z,100720.20
2022-09-07T20:59:49.837Z,100719.95
2022-09-07T21:02:54.678Z,100714.89
2022-09-07T21:06:00.069Z,100711.70
2022-09-07T21:09:05.912Z,100711.70
2022-09-07T21:12:11.575Z,100710.73
2022-09-07T21:15:17.956Z,100712.17
2022-09-07T21:18:28.982Z,100717.51
2022-09-07T21:21:38.326Z,100718.27
2022-09-07T21:24:41.886Z,100712.02
2022-09-07T21:27:47.770Z,100713.31
2022-09-07T21:30:53.974Z,100711.03
2022-09-07T21:33:58.869Z,100718.42
2022-09-07T21:37:04.881Z,100711.09
2022-09-07T21:40:12.337Z,100711.67
2022-09-07T21:43:19.092Z,100715.58
2022-09-07T21:46:32.846Z,100712.77
2022-09-07T21:49:31.913Z,100707.44
2022-09-07T21:52:38.821Z,100708.55
2022-09-07T21:55:44.182Z,100714.63
2022-09-07T21:58:50.392Z,100709.44
2022-09-07T22:01:56.186Z,100706.94
2022-09-07T22:05:01.893Z,100707.07
2022-09-07T22:08:07.526Z,100706.59
2022-09-07T22:11:22.966Z,100710.05
2022-09-07T22:14:29.666Z,100703.30
2022-09-07T22:17:36.059Z,100699.05
2022-09-07T22:20:40.905Z,100696.55
2022-09-07T22:23:50.128Z,100697.09
2022-09-07T22:26:55.918Z,100695.86
2022-09-07T22:30:02.294Z,100693.17
2022-09-07T22:33:08.281Z,100691.42
2022-09-07T22:36:34.454Z,100684.97
2022-09-07T22:39:39.325Z,100682.94
2022-09-07T22:42:44.390Z,100682.03
2022-09-07T22:45:50.773Z,100671.41
2022-09-07T22:48:56.490Z,100673.38
2022-09-07T22:52:03.127Z,100673.20
2022-09-07T22:55:09.847Z,100675.11
2022-09-07T22:58:15.728Z,100671.88
2022-09-07T23:01:21.293Z,100668.58
2022-09-07T23:07:41.629Z,100664.02
2022-09-07T23:10:49.010Z,100666.09
2022-09-07T23:13:55.880Z,100666.55
2022-09-07T23:17:01.456Z,100658.52
2022-09-07T23:20:07.238Z,100657.50
2022-09-07T23:23:12.493Z,100654.61
2022-09-07T23:26:19.168Z,100659.39
2022-09-07T23:29:20.715Z,100654.73
2022-09-07T23:32:25.456Z,100652.86
2022-09-07T23:35:30.403Z,100656.75
2022-09-07T23:38:35.879Z,100656.08
2022-09-07T23:41:43.058Z,100653.92
2022-09-07T23:44:48.068Z,100660.77
2022-09-07T23:47:53.526Z,100658.97
2022-09-07T23:51:00.874Z,100655.52
2022-09-07T23:54:05.614Z,100654.80
2022-09-07T23:57:11.402Z,100651.94
